Time;durP1;ratioP1;P1;durP2;ratioP2;P2;SDS_P1;SDS_P2;PMS_P1;PMS_P2;Temp;Humidity;BMP_temperature;BMP_pressure;BME280_temperature;BME280_humidity;BME280_pressure;Samples;Min_cycle;Max_cycle;Signal;HPM_P1;HPM_P2
2021/08/13 00:00:36;;;;;;;;;;;21.00;99.90;;;;;;2105717;28;1196;-55
2021/08/13 00:01:56;;;;;;;;;;;21.00;99.90;;;;;;2097881;28;796;-54
2021/08/13 00:03:17;;;;;;;;;;;21.00;99.90;;;;;;2097873;28;712;-55
2021/08/13 00:04:35;;;;;;;;;;;21.00;99.90;;;;;;2100424;28;1850;-54
2021/08/13 00:05:55;;;;;;;;;;;21.00;99.90;;;;;;2100271;28;1629;-53
2021/08/13 00:07:14;;;;;;;;;;;21.00;99.90;;;;;;2106100;28;732;-56
2021/08/13 00:08:33;;;;;;;;;;;20.90;99.90;;;;;;2105598;28;813;-54
2021/08/13 00:09:52;;;;;;;;;;;20.90;99.90;;;;;;2097870;28;1753;-54
2021/08/13 00:11:11;;;;;;;;;;;20.90;99.90;;;;;;2088735;28;746;-55
2021/08/13 00:12:30;;;;;;;;;;;20.90;99.90;;;;;;2094042;28;1898;-54
2021/08/13 00:13:50;;;;;;;;;;;20.90;99.90;;;;;;2089612;28;1479;-54
2021/08/13 00:15:09;;;;;;;;;;;20.90;99.90;;;;;;2093918;28;750;-54
2021/08/13 00:16:28;;;;;;;;;;;20.90;99.90;;;;;;2093902;28;772;-55
2021/08/13 00:17:48;;;;;;;;;;;20.90;99.90;;;;;;2093791;28;857;-54
2021/08/13 00:19:07;;;;;;;;;;;20.90;99.90;;;;;;2097456;28;759;-56
2021/08/13 00:20:26;;;;;;;;;;;20.90;99.90;;;;;;2096799;28;1735;-53
2021/08/13 00:21:46;;;;;;;;;;;20.90;99.90;;;;;;2093876;28;783;-54
2021/08/13 00:23:05;;;;;;;;;;;20.90;99.90;;;;;;2097782;28;781;-53
2021/08/13 00:24:25;;;;;;;;;;;20.90;99.90;;;;;;2102527;28;1716;-54
2021/08/13 00:25:44;;;;;;;;;;;20.90;99.90;;;;;;2106103;28;704;-54
2021/08/13 00:27:03;;;;;;;;;;;20.90;99.90;;;;;;2105398;28;724;-54
2021/08/13 00:28:22;;;;;;;;;;;20.90;99.90;;;;;;2105807;28;754;-55
2021/08/13 00:29:42;;;;;;;;;;;20.90;99.90;;;;;;2105559;28;860;-55
2021/08/13 00:31:02;;;;;;;;;;;20.90;99.90;;;;;;2102664;28;1232;-54
2021/08/13 00:32:22;;;;;;;;;;;20.90;99.90;;;;;;2094087;28;1952;-55
2021/08/13 00:33:42;;;;;;;;;;;20.90;99.90;;;;;;2098985;28;1325;-54
2021/08/13 00:35:01;;;;;;;;;;;20.90;99.90;;;;;;2094264;28;775;-54
2021/08/13 00:36:21;;;;;;;;;;;20.90;99.90;;;;;;2090969;28;815;-54
2021/08/13 00:37:41;;;;;;;;;;;20.90;99.90;;;;;;2098684;28;1536;-54
2021/08/13 00:39:02;;;;;;;;;;;20.90;99.90;;;;;;2105390;28;735;-55
2021/08/13 00:40:23;;;;;;;;;;;20.90;99.90;;;;;;2096533;28;783;-54
2021/08/13 00:41:42;;;;;;;;;;;20.90;99.90;;;;;;2102669;28;1526;-55
2021/08/13 00:43:01;;;;;;;;;;;20.80;99.90;;;;;;2102176;28;756;-54
2021/08/13 00:44:21;;;;;;;;;;;20.80;99.90;;;;;;2105656;28;1361;-55
2021/08/13 00:45:40;;;;;;;;;;;20.90;99.90;;;;;;2106271;28;733;-54
2021/08/13 00:47:04;;;;;;;;;;;20.90;99.90;;;;;;2105148;28;761;-53
2021/08/13 00:48:42;;;;;;;;;;;20.90;99.90;;;;;;2104545;28;740;-53
2021/08/13 00:50:11;;;;;;;;;;;20.90;99.90;;;;;;2104849;28;723;-54
2021/08/13 00:51:37;;;;;;;;;;;20.90;99.90;;;;;;2086572;28;743;-53
2021/08/13 00:53:00;;;;;;;;;;;20.90;99.90;;;;;;2086653;28;1898;-55
2021/08/13 00:54:19;;;;;;;;;;;20.80;99.90;;;;;;2086142;28;1354;-54
2021/08/13 00:55:42;;;;;;;;;;;20.90;99.90;;;;;;2091645;28;755;-56
2021/08/13 00:57:17;;;;;;;;;;;20.90;99.90;;;;;;2087526;28;746;-55
2021/08/13 00:58:49;;;;;;;;;;;20.90;99.90;;;;;;2103917;28;1999;-55
2021/08/13 01:00:22;;;;;;;;;;;20.80;99.90;;;;;;2097799;28;1003;-54
2021/08/13 01:01:44;;;;;;;;;;;20.90;99.90;;;;;;2094219;28;754;-56
2021/08/13 01:03:04;;;;;;;;;;;20.80;99.90;;;;;;2088721;28;722;-55
2021/08/13 01:04:25;;;;;;;;;;;20.80;99.90;;;;;;2090714;28;1489;-55
2021/08/13 01:05:46;;;;;;;;;;;20.80;99.90;;;;;;2096915;28;1694;-53
2021/08/13 01:07:07;;;;;;;;;;;20.80;99.90;;;;;;2105097;28;1565;-54
2021/08/13 01:08:27;;;;;;;;;;;20.80;99.90;;;;;;2094102;28;2017;-54
2021/08/13 01:09:47;;;;;;;;;;;20.80;99.90;;;;;;2085895;28;1632;-54
2021/08/13 01:11:16;;;;;;;;;;;20.80;99.90;;;;;;2094635;28;723;-54
2021/08/13 01:12:41;;;;;;;;;;;20.80;99.90;;;;;;2097032;28;1915;-54
2021/08/13 01:14:11;;;;;;;;;;;20.80;99.90;;;;;;2086104;28;1265;-54
2021/08/13 01:15:35;;;;;;;;;;;20.80;99.90;;;;;;2095412;28;752;-54
2021/08/13 01:16:55;;;;;;;;;;;20.80;99.90;;;;;;2090339;28;715;-53
2021/08/13 01:18:24;;;;;;;;;;;20.80;99.90;;;;;;2092130;28;887;-54
2021/08/13 01:19:44;;;;;;;;;;;20.80;99.90;;;;;;2104364;28;722;-55
2021/08/13 01:21:11;;;;;;;;;;;20.80;99.90;;;;;;2098765;28;721;-53
2021/08/13 01:23:05;;;;;;;;;;;20.80;99.90;;;;;;2096503;28;1086;-55
2021/08/13 01:24:26;;;;;;;;;;;20.80;99.90;;;;;;2088585;28;1638;-53
2021/08/13 01:25:48;;;;;;;;;;;20.80;99.90;;;;;;2091241;28;1200;-55
2021/08/13 01:27:08;;;;;;;;;;;20.80;99.90;;;;;;2087393;28;723;-55
2021/08/13 01:28:40;;;;;;;;;;;20.80;99.90;;;;;;2094995;28;1439;-54
2021/08/13 01:30:03;;;;;;;;;;;20.80;99.90;;;;;;2101706;28;956;-55
2021/08/13 01:31:38;;;;;;;;;;;20.80;99.90;;;;;;2099213;28;971;-56
2021/08/13 01:32:57;;;;;;;;;;;20.80;99.90;;;;;;2089998;28;1985;-56
2021/08/13 01:34:18;;;;;;;;;;;20.80;99.90;;;;;;2094233;28;1623;-54
2021/08/13 01:35:41;;;;;;;;;;;20.80;99.90;;;;;;2094561;28;1241;-56
2021/08/13 01:37:04;;;;;;;;;;;20.80;99.90;;;;;;2090381;28;1093;-56
2021/08/13 01:38:27;;;;;;;;;;;20.80;99.90;;;;;;2093039;28;1655;-56
2021/08/13 01:39:52;;;;;;;;;;;20.80;99.90;;;;;;2096672;28;714;-54
2021/08/13 01:41:13;;;;;;;;;;;20.80;99.90;;;;;;2094356;28;841;-56
2021/08/13 01:42:34;;;;;;;;;;;20.70;99.90;;;;;;2092282;28;1075;-55
2021/08/13 01:43:56;;;;;;;;;;;20.80;99.90;;;;;;2088395;28;1408;-55
2021/08/13 01:45:17;;;;;;;;;;;20.80;99.90;;;;;;2103122;28;1677;-54
2021/08/13 01:46:38;;;;;;;;;;;20.80;99.90;;;;;;2095336;28;1955;-56
2021/08/13 01:47:57;;;;;;;;;;;20.80;99.90;;;;;;2094951;28;1688;-56
2021/08/13 01:49:17;;;;;;;;;;;20.80;99.90;;;;;;2094873;28;731;-55
2021/08/13 01:50:38;;;;;;;;;;;20.80;99.90;;;;;;2094748;28;745;-55
2021/08/13 01:51:58;;;;;;;;;;;20.80;99.90;;;;;;2100290;28;859;-54
2021/08/13 01:53:20;;;;;;;;;;;20.70;99.90;;;;;;2094814;28;1977;-54
2021/08/13 01:54:41;;;;;;;;;;;20.70;99.90;;;;;;2101316;28;854;-55
2021/08/13 01:56:01;;;;;;;;;;;20.70;99.90;;;;;;2090623;28;853;-54
2021/08/13 01:57:23;;;;;;;;;;;20.70;99.90;;;;;;2100645;28;1026;-54
2021/08/13 01:58:42;;;;;;;;;;;20.70;99.90;;;;;;2095209;28;917;-53
2021/08/13 02:00:05;;;;;;;;;;;20.70;99.90;;;;;;2096863;28;987;-55
2021/08/13 02:01:34;;;;;;;;;;;20.70;99.90;;;;;;2102207;28;948;-55
2021/08/13 02:02:53;;;;;;;;;;;20.70;99.90;;;;;;2088830;28;875;-54
2021/08/13 02:04:17;;;;;;;;;;;20.70;99.90;;;;;;2086774;28;1757;-56
2021/08/13 02:05:37;;;;;;;;;;;20.70;99.90;;;;;;2092362;28;1608;-56
2021/08/13 02:06:57;;;;;;;;;;;20.70;99.90;;;;;;2095335;28;724;-56
2021/08/13 02:08:17;;;;;;;;;;;20.70;99.90;;;;;;2086634;28;753;-55
2021/08/13 02:09:38;;;;;;;;;;;20.70;99.90;;;;;;2092247;28;762;-55
2021/08/13 02:10:59;;;;;;;;;;;20.70;99.90;;;;;;2086037;28;727;-54
2021/08/13 02:12:18;;;;;;;;;;;20.70;99.90;;;;;;2091656;28;725;-54
2021/08/13 02:13:39;;;;;;;;;;;20.70;99.90;;;;;;2099908;28;1727;-53
2021/08/13 02:14:58;;;;;;;;;;;20.70;99.90;;;;;;2091781;28;788;-56
2021/08/13 02:16:23;;;;;;;;;;;20.70;99.90;;;;;;2101018;28;708;-55
2021/08/13 02:17:59;;;;;;;;;;;20.70;99.90;;;;;;2098323;28;712;-54
2021/08/13 02:19:39;;;;;;;;;;;20.70;99.90;;;;;;2095512;28;1387;-55
2021/08/13 02:21:02;;;;;;;;;;;20.70;99.90;;;;;;2086940;28;1431;-55
2021/08/13 02:22:22;;;;;;;;;;;20.70;99.90;;;;;;2096721;28;1146;-55
2021/08/13 02:23:47;;;;;;;;;;;20.70;99.90;;;;;;2091555;28;1599;-54
2021/08/13 02:25:07;;;;;;;;;;;20.70;99.90;;;;;;2098118;28;1213;-54
2021/08/13 02:26:26;;;;;;;;;;;20.70;99.90;;;;;;2092527;28;1150;-55
2021/08/13 02:27:45;;;;;;;;;;;20.70;99.90;;;;;;2099003;28;1220;-55
2021/08/13 02:29:07;;;;;;;;;;;20.70;99.90;;;;;;2087121;28;1403;-55
2021/08/13 02:30:26;;;;;;;;;;;20.70;99.90;;;;;;2094622;28;1052;-55
2021/08/13 02:31:46;;;;;;;;;;;20.70;99.90;;;;;;2103125;28;1722;-54
2021/08/13 02:33:05;;;;;;;;;;;20.70;99.90;;;;;;2102781;28;1973;-55
2021/08/13 02:34:26;;;;;;;;;;;20.70;99.90;;;;;;2101619;28;1936;-54
2021/08/13 02:35:45;;;;;;;;;;;20.70;99.90;;;;;;2102369;28;1261;-56
2021/08/13 02:37:07;;;;;;;;;;;20.70;99.90;;;;;;2101359;28;1173;-55
2021/08/13 02:38:27;;;;;;;;;;;20.70;99.90;;;;;;2094046;28;1257;-55
2021/08/13 02:39:50;;;;;;;;;;;20.70;99.90;;;;;;2093428;28;1203;-54
2021/08/13 02:41:09;;;;;;;;;;;20.70;99.90;;;;;;2103169;28;1408;-54
2021/08/13 02:42:32;;;;;;;;;;;20.60;99.90;;;;;;2106643;28;1136;-54
2021/08/13 02:43:55;;;;;;;;;;;20.70;99.90;;;;;;2096318;28;1657;-54
2021/08/13 02:45:15;;;;;;;;;;;20.60;99.90;;;;;;2095380;28;1423;-54
2021/08/13 02:46:35;;;;;;;;;;;20.60;99.90;;;;;;2087990;28;1047;-55
2021/08/13 02:48:00;;;;;;;;;;;20.70;99.90;;;;;;2091785;28;1090;-55
2021/08/13 02:49:24;;;;;;;;;;;20.70;99.90;;;;;;2093447;28;1539;-54
2021/08/13 02:50:45;;;;;;;;;;;20.70;99.90;;;;;;2090730;28;1071;-54
2021/08/13 02:52:04;;;;;;;;;;;20.70;99.90;;;;;;2084321;28;952;-54
2021/08/13 02:53:25;;;;;;;;;;;20.60;99.90;;;;;;2093292;28;1913;-55
2021/08/13 02:54:47;;;;;;;;;;;20.60;99.90;;;;;;2099402;28;1259;-55
2021/08/13 02:56:08;;;;;;;;;;;20.70;99.90;;;;;;2094927;28;1240;-55
2021/08/13 02:57:32;;;;;;;;;;;20.60;99.90;;;;;;2091219;28;1117;-55
2021/08/13 02:58:52;;;;;;;;;;;20.60;99.90;;;;;;2100746;28;1145;-55
2021/08/13 03:00:12;;;;;;;;;;;20.60;99.90;;;;;;2099813;28;1285;-55
2021/08/13 03:01:34;;;;;;;;;;;20.60;99.90;;;;;;2097439;28;1142;-56
2021/08/13 03:02:54;;;;;;;;;;;20.60;99.90;;;;;;2091394;28;1143;-56
2021/08/13 03:04:15;;;;;;;;;;;20.60;99.90;;;;;;2092879;28;1637;-54
2021/08/13 03:05:34;;;;;;;;;;;20.70;99.90;;;;;;2091804;28;1143;-55
2021/08/13 03:06:58;;;;;;;;;;;20.70;99.90;;;;;;2089642;28;1392;-57
2021/08/13 03:08:18;;;;;;;;;;;20.70;99.90;;;;;;2095568;28;915;-56
2021/08/13 03:09:37;;;;;;;;;;;20.70;99.90;;;;;;2094129;28;1398;-57
2021/08/13 03:10:57;;;;;;;;;;;20.70;99.90;;;;;;2102628;28;1497;-57
2021/08/13 03:12:18;;;;;;;;;;;20.70;99.90;;;;;;2105818;28;1385;-56
2021/08/13 03:13:37;;;;;;;;;;;20.70;99.90;;;;;;2094448;28;1430;-57
2021/08/13 03:14:57;;;;;;;;;;;20.70;99.90;;;;;;2094247;28;1253;-57
2021/08/13 03:16:17;;;;;;;;;;;20.70;99.90;;;;;;2098600;28;1396;-57
2021/08/13 03:17:41;;;;;;;;;;;20.60;99.90;;;;;;2095148;28;1048;-57
2021/08/13 03:19:00;;;;;;;;;;;20.70;99.90;;;;;;2085339;28;948;-57
2021/08/13 03:20:21;;;;;;;;;;;20.70;99.90;;;;;;2087884;28;1183;-57
2021/08/13 03:21:54;;;;;;;;;;;20.70;99.90;;;;;;2094542;28;1266;-57
2021/08/13 03:23:14;;;;;;;;;;;20.70;99.90;;;;;;2096298;28;1356;-56
2021/08/13 03:24:35;;;;;;;;;;;20.70;99.90;;;;;;2085119;28;1663;-57
2021/08/13 03:25:57;;;;;;;;;;;20.70;99.90;;;;;;2097827;28;1186;-55
2021/08/13 03:27:17;;;;;;;;;;;20.70;99.90;;;;;;2100607;28;1333;-56
2021/08/13 03:28:36;;;;;;;;;;;20.70;99.90;;;;;;2094233;28;1859;-57
2021/08/13 03:29:56;;;;;;;;;;;20.70;99.90;;;;;;2092749;28;1253;-56
2021/08/13 03:31:31;;;;;;;;;;;20.70;99.90;;;;;;2102895;28;1174;-56
2021/08/13 03:32:50;;;;;;;;;;;20.70;99.90;;;;;;2096360;28;1972;-56
2021/08/13 03:34:10;;;;;;;;;;;20.70;99.90;;;;;;2092004;28;1723;-56
2021/08/13 03:35:30;;;;;;;;;;;20.70;99.90;;;;;;2096550;28;1196;-57
2021/08/13 03:36:50;;;;;;;;;;;20.70;99.90;;;;;;2099335;28;1185;-56
2021/08/13 03:38:13;;;;;;;;;;;20.70;99.90;;;;;;2102610;28;1444;-56
2021/08/13 03:39:34;;;;;;;;;;;20.70;99.90;;;;;;2084087;28;1225;-57
2021/08/13 03:40:53;;;;;;;;;;;20.70;99.90;;;;;;2093383;28;1330;-58
2021/08/13 03:42:12;;;;;;;;;;;20.70;99.90;;;;;;2102471;28;1278;-55
2021/08/13 03:43:33;;;;;;;;;;;20.70;99.90;;;;;;2092129;28;1196;-57
2021/08/13 03:44:52;;;;;;;;;;;20.80;99.90;;;;;;2098434;28;1090;-57
2021/08/13 03:46:11;;;;;;;;;;;20.80;99.90;;;;;;2093733;28;1110;-56
2021/08/13 03:47:30;;;;;;;;;;;20.80;99.90;;;;;;2089264;28;1075;-57
2021/08/13 03:48:50;;;;;;;;;;;20.80;99.90;;;;;;2090215;28;1193;-56
2021/08/13 03:50:09;;;;;;;;;;;20.70;99.90;;;;;;2096814;28;1402;-57
2021/08/13 03:51:28;;;;;;;;;;;20.80;99.90;;;;;;2101938;28;1254;-56
2021/08/13 03:52:47;;;;;;;;;;;20.70;99.90;;;;;;2090373;28;1977;-56
2021/08/13 03:54:07;;;;;;;;;;;20.70;99.90;;;;;;2087128;28;1553;-55
2021/08/13 03:55:27;;;;;;;;;;;20.70;99.90;;;;;;2088950;28;1266;-56
2021/08/13 03:56:47;;;;;;;;;;;20.70;99.90;;;;;;2095038;28;1273;-56
2021/08/13 03:58:07;;;;;;;;;;;20.70;99.90;;;;;;2096739;28;1313;-57
2021/08/13 03:59:26;;;;;;;;;;;20.70;99.90;;;;;;2095674;28;1285;-57
2021/08/13 04:00:46;;;;;;;;;;;20.70;99.90;;;;;;2091877;28;1108;-54
2021/08/13 04:02:06;;;;;;;;;;;20.70;99.90;;;;;;2089367;28;1304;-55
2021/08/13 04:03:26;;;;;;;;;;;20.70;99.90;;;;;;2096298;28;1135;-53
2021/08/13 04:04:45;;;;;;;;;;;20.70;99.90;;;;;;2100132;28;1287;-55
2021/08/13 04:06:05;;;;;;;;;;;20.70;99.90;;;;;;2092271;28;1366;-54
2021/08/13 04:07:25;;;;;;;;;;;20.70;99.90;;;;;;2092214;28;1106;-55
2021/08/13 04:08:44;;;;;;;;;;;20.70;99.90;;;;;;2096986;28;1313;-53
2021/08/13 04:10:05;;;;;;;;;;;20.60;99.90;;;;;;2101489;28;1354;-54
2021/08/13 04:11:24;;;;;;;;;;;20.60;99.90;;;;;;2098565;28;1393;-55
2021/08/13 04:12:45;;;;;;;;;;;20.60;99.90;;;;;;2100545;28;1901;-55
2021/08/13 04:14:13;;;;;;;;;;;20.60;99.90;;;;;;2095484;28;1654;-54
2021/08/13 04:15:33;;;;;;;;;;;20.60;99.90;;;;;;2099139;28;1261;-54
2021/08/13 04:16:52;;;;;;;;;;;20.60;99.90;;;;;;2101599;28;1269;-55
2021/08/13 04:18:12;;;;;;;;;;;20.60;99.90;;;;;;2101132;28;1369;-54
2021/08/13 04:19:31;;;;;;;;;;;20.60;99.90;;;;;;2098975;28;1119;-55
2021/08/13 04:20:51;;;;;;;;;;;20.60;99.90;;;;;;2093921;28;1184;-55
2021/08/13 04:22:12;;;;;;;;;;;20.60;99.90;;;;;;2089587;28;1444;-55
2021/08/13 04:23:32;;;;;;;;;;;20.60;99.90;;;;;;2097729;28;1320;-53
2021/08/13 04:24:53;;;;;;;;;;;20.60;99.90;;;;;;2092822;28;1275;-55
2021/08/13 04:26:14;;;;;;;;;;;20.60;99.90;;;;;;2101369;28;1154;-55
2021/08/13 04:27:33;;;;;;;;;;;20.60;99.90;;;;;;2104309;28;1393;-54
2021/08/13 04:28:52;;;;;;;;;;;20.60;99.90;;;;;;2103761;28;1302;-54
2021/08/13 04:30:13;;;;;;;;;;;20.60;99.90;;;;;;2102172;28;1278;-55
2021/08/13 04:31:32;;;;;;;;;;;20.60;99.90;;;;;;2094777;28;1362;-55
2021/08/13 04:32:51;;;;;;;;;;;20.60;99.90;;;;;;2092566;28;1972;-54
2021/08/13 04:34:10;;;;;;;;;;;20.60;99.90;;;;;;2097407;28;1803;-54
2021/08/13 04:35:30;;;;;;;;;;;20.60;99.90;;;;;;2094099;28;1404;-54
2021/08/13 04:36:54;;;;;;;;;;;20.60;99.90;;;;;;2103801;28;1626;-53
2021/08/13 04:38:13;;;;;;;;;;;20.60;99.90;;;;;;2096063;28;1219;-53
2021/08/13 04:39:33;;;;;;;;;;;20.60;99.90;;;;;;2101354;28;1147;-55
2021/08/13 04:40:52;;;;;;;;;;;20.60;99.90;;;;;;2101504;28;1195;-55
2021/08/13 04:42:11;;;;;;;;;;;20.60;99.90;;;;;;2092430;28;1298;-53
2021/08/13 04:43:31;;;;;;;;;;;20.60;99.90;;;;;;2102809;28;1354;-54
2021/08/13 04:44:50;;;;;;;;;;;20.60;99.90;;;;;;2095879;28;1392;-55
2021/08/13 04:46:10;;;;;;;;;;;20.60;99.90;;;;;;2097112;28;841;-54
2021/08/13 04:47:30;;;;;;;;;;;20.60;99.90;;;;;;2094095;28;881;-53
2021/08/13 04:48:50;;;;;;;;;;;20.60;99.90;;;;;;2083171;28;893;-55
2021/08/13 04:50:12;;;;;;;;;;;20.60;99.90;;;;;;2095340;28;1457;-55
2021/08/13 04:51:32;;;;;;;;;;;20.60;99.90;;;;;;2095662;28;923;-55
2021/08/13 04:52:51;;;;;;;;;;;20.60;99.90;;;;;;2096259;28;1975;-55
2021/08/13 04:54:11;;;;;;;;;;;20.60;99.90;;;;;;2093198;28;1481;-56
2021/08/13 04:55:30;;;;;;;;;;;20.60;99.90;;;;;;2095180;28;954;-56
2021/08/13 04:56:52;;;;;;;;;;;20.60;99.90;;;;;;2092739;28;1017;-55
2021/08/13 04:58:11;;;;;;;;;;;20.60;99.90;;;;;;2100565;28;1424;-56
2021/08/13 04:59:30;;;;;;;;;;;20.60;99.90;;;;;;2104624;28;885;-54
2021/08/13 05:00:56;;;;;;;;;;;20.60;99.90;;;;;;2102917;28;889;-56
2021/08/13 05:02:20;;;;;;;;;;;20.60;99.90;;;;;;2103045;28;1398;-57
2021/08/13 05:03:39;;;;;;;;;;;20.60;99.90;;;;;;2104408;28;869;-57
2021/08/13 05:04:59;;;;;;;;;;;20.60;99.90;;;;;;2094499;28;974;-57
2021/08/13 05:06:18;;;;;;;;;;;20.50;99.90;;;;;;2096264;28;859;-56
2021/08/13 05:07:37;;;;;;;;;;;20.50;99.90;;;;;;2099381;28;1071;-56
2021/08/13 05:08:57;;;;;;;;;;;20.40;99.90;;;;;;2085761;28;1390;-57
2021/08/13 05:10:16;;;;;;;;;;;20.40;99.90;;;;;;2091762;28;1033;-56
2021/08/13 05:11:35;;;;;;;;;;;20.30;99.90;;;;;;2099721;28;1069;-57
2021/08/13 05:12:55;;;;;;;;;;;20.30;99.90;;;;;;2102956;28;1910;-56
2021/08/13 05:14:15;;;;;;;;;;;20.30;99.90;;;;;;2095197;28;1426;-57
2021/08/13 05:15:35;;;;;;;;;;;20.40;99.90;;;;;;2086656;28;1194;-57
2021/08/13 05:16:55;;;;;;;;;;;20.40;99.90;;;;;;2099107;28;1326;-57
2021/08/13 05:18:14;;;;;;;;;;;20.40;99.90;;;;;;2106660;28;1043;-57
2021/08/13 05:19:34;;;;;;;;;;;20.50;99.90;;;;;;2099527;28;1293;-56
2021/08/13 05:20:55;;;;;;;;;;;20.50;99.90;;;;;;2101125;28;1071;-56
2021/08/13 05:22:14;;;;;;;;;;;20.50;99.90;;;;;;2103715;28;1078;-57
2021/08/13 05:23:33;;;;;;;;;;;20.50;99.90;;;;;;2095998;28;1172;-56
2021/08/13 05:24:53;;;;;;;;;;;20.50;99.90;;;;;;2099811;28;1131;-56
2021/08/13 05:26:13;;;;;;;;;;;20.50;99.90;;;;;;2103087;28;1193;-57
2021/08/13 05:27:32;;;;;;;;;;;20.50;99.90;;;;;;2097167;28;1435;-56
2021/08/13 05:28:52;;;;;;;;;;;20.50;99.90;;;;;;2095943;28;1307;-54
2021/08/13 05:30:14;;;;;;;;;;;20.50;99.90;;;;;;2096406;28;1087;-56
2021/08/13 05:31:36;;;;;;;;;;;20.60;99.90;;;;;;2102907;28;1248;-56
2021/08/13 05:32:55;;;;;;;;;;;20.50;99.90;;;;;;2106537;28;1977;-56
2021/08/13 05:34:15;;;;;;;;;;;20.50;99.90;;;;;;2106480;28;1452;-54
2021/08/13 05:35:37;;;;;;;;;;;20.60;99.90;;;;;;2099990;28;975;-56
2021/08/13 05:36:57;;;;;;;;;;;20.60;99.90;;;;;;2094112;28;1093;-55
2021/08/13 05:38:16;;;;;;;;;;;20.60;99.90;;;;;;2101869;28;899;-55
2021/08/13 05:39:36;;;;;;;;;;;20.60;99.90;;;;;;2099808;28;1204;-56
2021/08/13 05:40:56;;;;;;;;;;;20.60;99.90;;;;;;2102301;28;1141;-55
2021/08/13 05:42:15;;;;;;;;;;;20.60;99.90;;;;;;2104759;28;1254;-55
2021/08/13 05:43:35;;;;;;;;;;;20.60;99.90;;;;;;2096579;28;1229;-53
2021/08/13 05:44:54;;;;;;;;;;;20.60;99.90;;;;;;2092679;28;1127;-55
2021/08/13 05:46:14;;;;;;;;;;;20.60;99.90;;;;;;2091608;28;1160;-56
2021/08/13 05:47:38;;;;;;;;;;;20.50;99.90;;;;;;2099442;28;1231;-54
2021/08/13 05:48:58;;;;;;;;;;;20.40;99.90;;;;;;2097358;28;1612;-56
2021/08/13 05:50:17;;;;;;;;;;;20.50;99.90;;;;;;2104023;28;1191;-55
2021/08/13 05:51:38;;;;;;;;;;;20.50;99.90;;;;;;2103036;28;1279;-55
2021/08/13 05:52:57;;;;;;;;;;;20.50;99.90;;;;;;2094514;28;1909;-56
2021/08/13 05:54:18;;;;;;;;;;;20.50;99.90;;;;;;2092173;28;1480;-54
2021/08/13 05:55:38;;;;;;;;;;;20.50;99.90;;;;;;2089389;28;1185;-54
2021/08/13 05:56:58;;;;;;;;;;;20.50;99.90;;;;;;2089467;28;1370;-53
2021/08/13 05:58:17;;;;;;;;;;;20.60;99.90;;;;;;2090732;28;1256;-55
2021/08/13 05:59:36;;;;;;;;;;;20.60;99.90;;;;;;2099291;28;1165;-56
2021/08/13 06:00:55;;;;;;;;;;;20.60;99.90;;;;;;2102529;28;1195;-55
2021/08/13 06:02:18;;;;;;;;;;;20.60;99.90;;;;;;2102537;28;1476;-55
2021/08/13 06:03:37;;;;;;;;;;;20.60;99.90;;;;;;2095385;28;1266;-54
2021/08/13 06:04:57;;;;;;;;;;;20.60;99.90;;;;;;2096519;28;1381;-55
2021/08/13 06:06:15;;;;;;;;;;;20.60;99.90;;;;;;2103308;28;1415;-53
2021/08/13 06:07:35;;;;;;;;;;;20.60;99.90;;;;;;2094355;28;1835;-55
2021/08/13 06:08:54;;;;;;;;;;;20.60;99.90;;;;;;2095852;28;1325;-55
2021/08/13 06:10:13;;;;;;;;;;;20.60;99.90;;;;;;2091502;28;1112;-56
2021/08/13 06:11:32;;;;;;;;;;;20.60;99.90;;;;;;2103543;28;1598;-53
2021/08/13 06:12:52;;;;;;;;;;;20.60;99.90;;;;;;2103250;28;1967;-55
2021/08/13 06:14:11;;;;;;;;;;;20.60;99.90;;;;;;2096212;28;1381;-54
2021/08/13 06:15:31;;;;;;;;;;;20.60;99.90;;;;;;2100365;28;1265;-55
2021/08/13 06:16:50;;;;;;;;;;;20.60;99.90;;;;;;2103976;28;1412;-55
2021/08/13 06:18:10;;;;;;;;;;;20.60;99.90;;;;;;2102132;28;1340;-54
2021/08/13 06:19:30;;;;;;;;;;;20.60;99.90;;;;;;2094904;28;1509;-55
2021/08/13 06:20:49;;;;;;;;;;;20.60;99.90;;;;;;2095021;28;1401;-55
2021/08/13 06:22:13;;;;;;;;;;;20.60;99.90;;;;;;2100585;28;1376;-55
2021/08/13 06:23:32;;;;;;;;;;;20.60;99.90;;;;;;2104078;28;1376;-55
2021/08/13 06:24:53;;;;;;;;;;;20.60;99.90;;;;;;2102269;28;1389;-54
2021/08/13 06:26:13;;;;;;;;;;;20.60;99.90;;;;;;2103888;28;1184;-55
2021/08/13 06:27:39;;;;;;;;;;;20.60;99.90;;;;;;2096815;28;1419;-54
2021/08/13 06:28:58;;;;;;;;;;;20.60;99.90;;;;;;2093112;28;1451;-53
2021/08/13 06:30:20;;;;;;;;;;;20.60;99.90;;;;;;2094873;28;1508;-55
2021/08/13 06:31:39;;;;;;;;;;;20.60;99.90;;;;;;2092733;28;1113;-54
2021/08/13 06:33:00;;;;;;;;;;;20.60;99.90;;;;;;2100525;28;1898;-54
2021/08/13 06:34:21;;;;;;;;;;;20.60;99.90;;;;;;2104722;28;1476;-55
2021/08/13 06:35:40;;;;;;;;;;;20.60;99.90;;;;;;2095930;28;1225;-54
2021/08/13 06:37:00;;;;;;;;;;;20.60;99.90;;;;;;2106758;28;1636;-54
2021/08/13 06:38:20;;;;;;;;;;;20.60;99.90;;;;;;2104627;28;1403;-53
2021/08/13 06:39:40;;;;;;;;;;;20.60;99.90;;;;;;2104211;28;1267;-53
2021/08/13 06:41:02;;;;;;;;;;;20.60;99.90;;;;;;2104236;28;1128;-54
2021/08/13 06:42:21;;;;;;;;;;;20.60;99.90;;;;;;2104095;28;1057;-55
2021/08/13 06:43:50;;;;;;;;;;;20.60;99.90;;;;;;2101448;28;1365;-55
2021/08/13 06:45:09;;;;;;;;;;;20.70;99.90;;;;;;2102996;28;1284;-53
2021/08/13 06:46:28;;;;;;;;;;;20.70;99.90;;;;;;2087326;28;1291;-54
2021/08/13 06:47:47;;;;;;;;;;;20.70;99.90;;;;;;2095363;28;1363;-54
2021/08/13 06:49:07;;;;;;;;;;;20.70;99.90;;;;;;2093836;28;1812;-53
2021/08/13 06:50:26;;;;;;;;;;;20.70;99.90;;;;;;2098216;28;1100;-58
2021/08/13 06:51:46;;;;;;;;;;;20.70;99.90;;;;;;2099573;28;837;-60
2021/08/13 06:53:05;;;;;;;;;;;20.70;99.90;;;;;;2110811;28;1910;-57
2021/08/13 06:54:25;;;;;;;;;;;20.70;99.90;;;;;;2113929;28;1469;-56
2021/08/13 06:55:45;;;;;;;;;;;20.70;99.90;;;;;;2098168;28;1385;-59
2021/08/13 06:57:04;;;;;;;;;;;20.70;99.90;;;;;;2099703;28;1085;-56
2021/08/13 06:58:24;;;;;;;;;;;20.70;99.90;;;;;;2100751;28;1527;-56
2021/08/13 06:59:43;;;;;;;;;;;20.70;99.90;;;;;;2106862;28;1418;-58
2021/08/13 07:01:03;;;;;;;;;;;20.70;99.90;;;;;;2104322;28;1388;-59
2021/08/13 07:02:23;;;;;;;;;;;20.70;99.90;;;;;;2095372;28;1451;-57
2021/08/13 07:03:42;;;;;;;;;;;20.70;99.90;;;;;;2091063;28;1275;-60
2021/08/13 07:05:02;;;;;;;;;;;20.70;99.90;;;;;;2100257;28;1328;-55
2021/08/13 07:06:21;;;;;;;;;;;20.70;99.90;;;;;;2107417;28;998;-57
2021/08/13 07:07:40;;;;;;;;;;;20.70;99.90;;;;;;2098611;28;1290;-63
2021/08/13 07:09:00;;;;;;;;;;;20.70;99.90;;;;;;2103077;28;1329;-60
2021/08/13 07:10:20;;;;;;;;;;;20.70;99.90;;;;;;2092602;28;1202;-57
2021/08/13 07:11:39;;;;;;;;;;;20.70;99.90;;;;;;2095189;28;1182;-56
2021/08/13 07:12:59;;;;;;;;;;;20.70;99.90;;;;;;2094378;28;1902;-59
2021/08/13 07:14:19;;;;;;;;;;;20.70;99.90;;;;;;2100836;28;1502;-57
2021/08/13 07:15:38;;;;;;;;;;;20.70;99.90;;;;;;2098221;28;1238;-59
2021/08/13 07:16:58;;;;;;;;;;;20.70;99.90;;;;;;2103754;28;1233;-59
2021/08/13 07:18:17;;;;;;;;;;;20.70;99.90;;;;;;2100182;28;1383;-60
2021/08/13 07:19:37;;;;;;;;;;;20.70;99.90;;;;;;2106944;28;1134;-58
2021/08/13 07:20:56;;;;;;;;;;;20.70;99.90;;;;;;2103061;28;1267;-61
2021/08/13 07:22:16;;;;;;;;;;;20.70;99.90;;;;;;2103801;28;1252;-54
2021/08/13 07:23:35;;;;;;;;;;;20.70;99.90;;;;;;2103542;28;1408;-60
2021/08/13 07:24:55;;;;;;;;;;;20.70;99.90;;;;;;2093270;28;1157;-58
2021/08/13 07:26:15;;;;;;;;;;;20.70;99.90;;;;;;2099713;28;922;-56
2021/08/13 07:27:35;;;;;;;;;;;20.70;99.90;;;;;;2091399;28;1283;-58
2021/08/13 07:28:56;;;;;;;;;;;20.70;99.90;;;;;;2093193;28;1430;-59
2021/08/13 07:30:17;;;;;;;;;;;20.70;99.90;;;;;;2097333;28;1403;-60
2021/08/13 07:31:36;;;;;;;;;;;20.70;99.90;;;;;;2093815;28;1221;-58
2021/08/13 07:32:57;;;;;;;;;;;20.70;99.90;;;;;;2092778;28;1906;-56
2021/08/13 07:34:17;;;;;;;;;;;20.70;99.90;;;;;;2101020;28;1420;-61
2021/08/13 07:35:36;;;;;;;;;;;20.70;99.90;;;;;;2093562;28;1142;-56
2021/08/13 07:36:57;;;;;;;;;;;20.70;99.90;;;;;;2095056;28;1067;-58
2021/08/13 07:38:16;;;;;;;;;;;20.70;99.90;;;;;;2091431;28;1704;-58
2021/08/13 07:39:35;;;;;;;;;;;20.70;99.90;;;;;;2098304;28;1106;-56
2021/08/13 07:40:55;;;;;;;;;;;20.70;99.90;;;;;;2102114;28;1146;-57
2021/08/13 07:42:15;;;;;;;;;;;20.80;99.90;;;;;;2106238;28;1159;-59
2021/08/13 07:43:35;;;;;;;;;;;20.80;99.90;;;;;;2096428;28;1132;-59
2021/08/13 07:44:55;;;;;;;;;;;20.80;99.90;;;;;;2093838;28;1298;-56
2021/08/13 07:46:14;;;;;;;;;;;20.70;99.90;;;;;;2090986;28;1194;-57
2021/08/13 07:47:33;;;;;;;;;;;20.70;99.90;;;;;;2091165;28;1221;-57
2021/08/13 07:48:54;;;;;;;;;;;20.80;99.90;;;;;;2099341;28;1650;-58
2021/08/13 07:50:13;;;;;;;;;;;20.80;99.90;;;;;;2100741;28;1525;-57
2021/08/13 07:51:34;;;;;;;;;;;20.70;99.90;;;;;;2101923;28;1115;-57
2021/08/13 07:52:53;;;;;;;;;;;20.70;99.90;;;;;;2102861;28;1977;-58
2021/08/13 07:54:15;;;;;;;;;;;20.70;99.90;;;;;;2105727;28;1406;-57
2021/08/13 07:55:35;;;;;;;;;;;20.70;99.90;;;;;;2105821;28;1704;-54
2021/08/13 07:56:55;;;;;;;;;;;20.70;99.90;;;;;;2103254;28;1828;-60
2021/08/13 07:58:14;;;;;;;;;;;20.80;99.90;;;;;;2094742;28;1283;-56
2021/08/13 07:59:34;;;;;;;;;;;20.70;99.90;;;;;;2098777;28;1115;-60